sensor_id;sensor_type;location;lat;lon;timestamp;P1;durP1;ratioP1;P2;durP2;ratioP2
82296;SDS011;71899;51.992;8.648;2023-07-31T00:01:51;2.88;;;1.08;;
82296;SDS011;71899;51.992;8.648;2023-07-31T00:04:16;3.10;;;0.85;;
82296;SDS011;71899;51.992;8.648;2023-07-31T00:06:41;1.63;;;1.13;;
82296;SDS011;71899;51.992;8.648;2023-07-31T00:09:07;2.75;;;1.40;;
82296;SDS011;71899;51.992;8.648;2023-07-31T00:11:32;2.40;;;1.33;;
82296;SDS011;71899;51.992;8.648;2023-07-31T00:13:57;5.65;;;2.95;;
82296;SDS011;71899;51.992;8.648;2023-07-31T00:16:23;3.83;;;2.78;;
82296;SDS011;71899;51.992;8.648;2023-07-31T00:18:48;5.10;;;2.65;;
82296;SDS011;71899;51.992;8.648;2023-07-31T00:21:13;5.05;;;3.22;;
82296;SDS011;71899;51.992;8.648;2023-07-31T00:23:39;5.32;;;3.33;;
82296;SDS011;71899;51.992;8.648;2023-07-31T00:26:04;9.07;;;4.30;;
82296;SDS011;71899;51.992;8.648;2023-07-31T00:28:29;7.70;;;4.20;;
82296;SDS011;71899;51.992;8.648;2023-07-31T00:30:55;5.50;;;4.20;;
82296;SDS011;71899;51.992;8.648;2023-07-31T00:33:24;6.45;;;4.30;;
82296;SDS011;71899;51.992;8.648;2023-07-31T00:35:49;6.10;;;4.10;;
82296;SDS011;71899;51.992;8.648;2023-07-31T00:38:15;7.93;;;4.38;;
82296;SDS011;71899;51.992;8.648;2023-07-31T00:40:40;5.70;;;3.72;;
82296;SDS011;71899;51.992;8.648;2023-07-31T00:43:05;7.78;;;4.78;;
82296;SDS011;71899;51.992;8.648;2023-07-31T00:45:31;6.57;;;4.93;;
82296;SDS011;71899;51.992;8.648;2023-07-31T00:47:57;8.38;;;4.65;;
82296;SDS011;71899;51.992;8.648;2023-07-31T00:50:24;8.00;;;5.03;;
82296;SDS011;71899;51.992;8.648;2023-07-31T00:52:50;6.85;;;4.68;;
82296;SDS011;71899;51.992;8.648;2023-07-31T00:55:16;7.50;;;4.80;;
82296;SDS011;71899;51.992;8.648;2023-07-31T00:57:43;8.13;;;5.60;;
82296;SDS011;71899;51.992;8.648;2023-07-31T01:00:10;10.05;;;5.03;;
82296;SDS011;71899;51.992;8.648;2023-07-31T01:02:36;6.88;;;4.70;;
82296;SDS011;71899;51.992;8.648;2023-07-31T01:05:02;8.70;;;5.43;;
82296;SDS011;71899;51.992;8.648;2023-07-31T01:07:36;6.07;;;4.53;;
82296;SDS011;71899;51.992;8.648;2023-07-31T01:10:11;8.30;;;5.28;;
82296;SDS011;71899;51.992;8.648;2023-07-31T01:12:45;10.13;;;6.88;;
82296;SDS011;71899;51.992;8.648;2023-07-31T01:15:11;7.50;;;5.07;;
82296;SDS011;71899;51.992;8.648;2023-07-31T01:17:38;6.00;;;4.72;;
82296;SDS011;71899;51.992;8.648;2023-07-31T01:20:05;6.45;;;4.93;;
82296;SDS011;71899;51.992;8.648;2023-07-31T01:28:38;4.85;;;3.75;;
82296;SDS011;71899;51.992;8.648;2023-07-31T01:31:12;5.40;;;3.22;;
82296;SDS011;71899;51.992;8.648;2023-07-31T01:33:41;4.13;;;3.05;;
82296;SDS011;71899;51.992;8.648;2023-07-31T01:36:07;5.60;;;3.10;;
82296;SDS011;71899;51.992;8.648;2023-07-31T01:38:33;4.50;;;3.10;;
82296;SDS011;71899;51.992;8.648;2023-07-31T01:40:58;2.08;;;1.88;;
82296;SDS011;71899;51.992;8.648;2023-07-31T01:43:24;2.65;;;2.10;;
82296;SDS011;71899;51.992;8.648;2023-07-31T01:45:50;4.65;;;2.28;;
82296;SDS011;71899;51.992;8.648;2023-07-31T01:48:16;1.98;;;1.67;;
82296;SDS011;71899;51.992;8.648;2023-07-31T01:50:42;2.75;;;1.80;;
82296;SDS011;71899;51.992;8.648;2023-07-31T01:53:07;2.55;;;1.50;;
82296;SDS011;71899;51.992;8.648;2023-07-31T01:55:32;1.98;;;1.38;;
82296;SDS011;71899;51.992;8.648;2023-07-31T01:57:58;3.38;;;2.00;;
82296;SDS011;71899;51.992;8.648;2023-07-31T02:00:23;3.58;;;1.52;;
82296;SDS011;71899;51.992;8.648;2023-07-31T02:02:48;2.83;;;1.38;;
82296;SDS011;71899;51.992;8.648;2023-07-31T02:05:14;2.15;;;1.45;;
82296;SDS011;71899;51.992;8.648;2023-07-31T02:07:39;2.38;;;1.30;;
82296;SDS011;71899;51.992;8.648;2023-07-31T02:10:05;3.10;;;1.73;;
82296;SDS011;71899;51.992;8.648;2023-07-31T02:12:30;2.10;;;1.25;;
82296;SDS011;71899;51.992;8.648;2023-07-31T02:14:57;4.93;;;1.33;;
82296;SDS011;71899;51.992;8.648;2023-07-31T02:17:22;1.70;;;1.13;;
82296;SDS011;71899;51.992;8.648;2023-07-31T02:19:48;2.20;;;0.98;;
82296;SDS011;71899;51.992;8.648;2023-07-31T02:22:13;1.58;;;1.15;;
82296;SDS011;71899;51.992;8.648;2023-07-31T02:24:38;2.08;;;1.30;;
82296;SDS011;71899;51.992;8.648;2023-07-31T02:27:04;2.53;;;1.23;;
82296;SDS011;71899;51.992;8.648;2023-07-31T02:29:29;2.28;;;1.45;;
82296;SDS011;71899;51.992;8.648;2023-07-31T02:31:55;2.75;;;1.30;;
82296;SDS011;71899;51.992;8.648;2023-07-31T02:34:20;1.95;;;1.30;;
82296;SDS011;71899;51.992;8.648;2023-07-31T02:36:45;1.95;;;1.50;;
82296;SDS011;71899;51.992;8.648;2023-07-31T02:39:10;2.47;;;1.20;;
82296;SDS011;71899;51.992;8.648;2023-07-31T02:41:36;2.17;;;1.35;;
82296;SDS011;71899;51.992;8.648;2023-07-31T02:44:01;3.75;;;1.40;;
82296;SDS011;71899;51.992;8.648;2023-07-31T02:46:26;4.07;;;2.28;;
82296;SDS011;71899;51.992;8.648;2023-07-31T02:48:52;3.22;;;1.08;;
82296;SDS011;71899;51.992;8.648;2023-07-31T02:51:17;1.17;;;0.90;;
82296;SDS011;71899;51.992;8.648;2023-07-31T02:53:42;1.63;;;1.00;;
82296;SDS011;71899;51.992;8.648;2023-07-31T02:56:08;2.63;;;1.02;;
82296;SDS011;71899;51.992;8.648;2023-07-31T02:58:33;4.50;;;1.10;;
82296;SDS011;71899;51.992;8.648;2023-07-31T03:00:58;0.98;;;0.75;;
82296;SDS011;71899;51.992;8.648;2023-07-31T03:03:24;2.72;;;1.08;;
82296;SDS011;71899;51.992;8.648;2023-07-31T03:05:49;2.17;;;1.10;;
82296;SDS011;71899;51.992;8.648;2023-07-31T03:08:14;2.80;;;1.83;;
82296;SDS011;71899;51.992;8.648;2023-07-31T03:10:40;3.70;;;2.35;;
82296;SDS011;71899;51.992;8.648;2023-07-31T03:13:06;6.35;;;3.20;;
82296;SDS011;71899;51.992;8.648;2023-07-31T03:15:31;9.13;;;4.78;;
82296;SDS011;71899;51.992;8.648;2023-07-31T03:17:56;13.63;;;7.00;;
82296;SDS011;71899;51.992;8.648;2023-07-31T03:20:22;16.48;;;7.88;;
82296;SDS011;71899;51.992;8.648;2023-07-31T03:22:47;18.38;;;7.65;;
82296;SDS011;71899;51.992;8.648;2023-07-31T03:25:12;26.35;;;9.98;;
82296;SDS011;71899;51.992;8.648;2023-07-31T03:27:39;22.45;;;11.60;;
82296;SDS011;71899;51.992;8.648;2023-07-31T03:30:04;29.10;;;12.52;;
82296;SDS011;71899;51.992;8.648;2023-07-31T03:32:30;25.50;;;12.32;;
82296;SDS011;71899;51.992;8.648;2023-07-31T03:34:56;35.00;;;14.98;;
82296;SDS011;71899;51.992;8.648;2023-07-31T03:37:21;31.42;;;14.13;;
82296;SDS011;71899;51.992;8.648;2023-07-31T03:39:46;38.42;;;16.08;;
82296;SDS011;71899;51.992;8.648;2023-07-31T03:42:11;34.92;;;16.20;;
82296;SDS011;71899;51.992;8.648;2023-07-31T03:44:37;36.67;;;15.77;;
82296;SDS011;71899;51.992;8.648;2023-07-31T03:47:04;38.80;;;16.02;;
82296;SDS011;71899;51.992;8.648;2023-07-31T03:49:30;33.22;;;17.00;;
82296;SDS011;71899;51.992;8.648;2023-07-31T03:51:56;34.55;;;16.60;;
82296;SDS011;71899;51.992;8.648;2023-07-31T03:54:22;32.38;;;15.70;;
82296;SDS011;71899;51.992;8.648;2023-07-31T03:56:47;37.05;;;16.83;;
82296;SDS011;71899;51.992;8.648;2023-07-31T03:59:12;37.22;;;16.60;;
82296;SDS011;71899;51.992;8.648;2023-07-31T04:01:38;35.25;;;16.33;;
82296;SDS011;71899;51.992;8.648;2023-07-31T04:04:03;40.45;;;16.33;;
82296;SDS011;71899;51.992;8.648;2023-07-31T04:06:28;44.47;;;16.38;;
82296;SDS011;71899;51.992;8.648;2023-07-31T04:08:54;42.47;;;16.70;;
82296;SDS011;71899;51.992;8.648;2023-07-31T04:11:19;41.65;;;17.48;;
82296;SDS011;71899;51.992;8.648;2023-07-31T04:13:44;32.30;;;16.23;;
82296;SDS011;71899;51.992;8.648;2023-07-31T04:16:09;34.53;;;17.05;;
82296;SDS011;71899;51.992;8.648;2023-07-31T04:18:35;33.35;;;15.40;;
82296;SDS011;71899;51.992;8.648;2023-07-31T04:21:00;28.55;;;15.43;;
82296;SDS011;71899;51.992;8.648;2023-07-31T04:23:27;34.25;;;16.17;;
82296;SDS011;71899;51.992;8.648;2023-07-31T04:25:52;34.33;;;16.75;;
82296;SDS011;71899;51.992;8.648;2023-07-31T04:28:17;35.42;;;16.65;;
82296;SDS011;71899;51.992;8.648;2023-07-31T04:30:43;30.00;;;15.25;;
82296;SDS011;71899;51.992;8.648;2023-07-31T04:33:08;36.60;;;14.40;;
82296;SDS011;71899;51.992;8.648;2023-07-31T04:35:33;35.00;;;14.50;;
82296;SDS011;71899;51.992;8.648;2023-07-31T04:37:59;30.80;;;14.25;;
82296;SDS011;71899;51.992;8.648;2023-07-31T04:40:24;36.58;;;14.57;;
82296;SDS011;71899;51.992;8.648;2023-07-31T04:42:49;26.20;;;12.30;;
82296;SDS011;71899;51.992;8.648;2023-07-31T04:45:15;27.98;;;13.75;;
82296;SDS011;71899;51.992;8.648;2023-07-31T04:47:40;22.75;;;11.90;;
82296;SDS011;71899;51.992;8.648;2023-07-31T04:50:05;29.40;;;13.30;;
82296;SDS011;71899;51.992;8.648;2023-07-31T04:52:31;30.73;;;13.02;;
82296;SDS011;71899;51.992;8.648;2023-07-31T04:54:56;24.80;;;12.90;;
82296;SDS011;71899;51.992;8.648;2023-07-31T04:57:22;30.00;;;14.07;;
82296;SDS011;71899;51.992;8.648;2023-07-31T04:59:47;30.27;;;12.90;;
82296;SDS011;71899;51.992;8.648;2023-07-31T05:02:12;28.25;;;13.40;;
82296;SDS011;71899;51.992;8.648;2023-07-31T05:04:38;31.90;;;13.27;;
82296;SDS011;71899;51.992;8.648;2023-07-31T05:07:04;24.90;;;12.05;;
82296;SDS011;71899;51.992;8.648;2023-07-31T05:09:29;32.08;;;13.80;;
82296;SDS011;71899;51.992;8.648;2023-07-31T05:11:54;26.40;;;11.55;;
82296;SDS011;71899;51.992;8.648;2023-07-31T05:14:20;25.67;;;11.68;;
82296;SDS011;71899;51.992;8.648;2023-07-31T05:16:45;30.75;;;11.85;;
82296;SDS011;71899;51.992;8.648;2023-07-31T05:19:10;23.90;;;11.38;;
82296;SDS011;71899;51.992;8.648;2023-07-31T05:21:36;24.73;;;10.95;;
82296;SDS011;71899;51.992;8.648;2023-07-31T05:24:01;23.42;;;10.43;;
82296;SDS011;71899;51.992;8.648;2023-07-31T05:26:26;26.52;;;11.43;;
82296;SDS011;71899;51.992;8.648;2023-07-31T05:28:52;24.40;;;9.48;;
82296;SDS011;71899;51.992;8.648;2023-07-31T05:31:17;18.23;;;9.88;;
82296;SDS011;71899;51.992;8.648;2023-07-31T05:33:42;20.58;;;9.70;;
82296;SDS011;71899;51.992;8.648;2023-07-31T05:36:07;25.83;;;8.98;;
82296;SDS011;71899;51.992;8.648;2023-07-31T05:38:33;20.08;;;9.00;;
82296;SDS011;71899;51.992;8.648;2023-07-31T05:40:58;19.73;;;9.40;;
82296;SDS011;71899;51.992;8.648;2023-07-31T05:43:23;18.73;;;7.93;;
82296;SDS011;71899;51.992;8.648;2023-07-31T05:45:49;22.08;;;9.13;;
82296;SDS011;71899;51.992;8.648;2023-07-31T05:48:14;17.30;;;7.97;;
82296;SDS011;71899;51.992;8.648;2023-07-31T05:50:39;24.30;;;9.85;;
82296;SDS011;71899;51.992;8.648;2023-07-31T05:53:05;20.85;;;8.07;;
82296;SDS011;71899;51.992;8.648;2023-07-31T05:55:31;18.95;;;8.13;;
82296;SDS011;71899;51.992;8.648;2023-07-31T05:57:57;20.05;;;8.55;;
82296;SDS011;71899;51.992;8.648;2023-07-31T06:00:22;20.83;;;8.25;;
82296;SDS011;71899;51.992;8.648;2023-07-31T06:02:48;19.00;;;8.23;;
82296;SDS011;71899;51.992;8.648;2023-07-31T06:05:13;19.85;;;7.93;;
82296;SDS011;71899;51.992;8.648;2023-07-31T06:07:39;20.05;;;7.20;;
82296;SDS011;71899;51.992;8.648;2023-07-31T06:10:04;18.35;;;7.13;;
82296;SDS011;71899;51.992;8.648;2023-07-31T06:12:31;22.38;;;7.95;;
82296;SDS011;71899;51.992;8.648;2023-07-31T06:14:56;20.45;;;7.30;;
82296;SDS011;71899;51.992;8.648;2023-07-31T06:17:22;16.92;;;7.85;;
82296;SDS011;71899;51.992;8.648;2023-07-31T06:19:47;15.98;;;7.65;;
82296;SDS011;71899;51.992;8.648;2023-07-31T06:22:13;13.55;;;7.32;;
82296;SDS011;71899;51.992;8.648;2023-07-31T06:24:38;19.85;;;7.20;;
82296;SDS011;71899;51.992;8.648;2023-07-31T06:27:03;17.02;;;6.90;;
82296;SDS011;71899;51.992;8.648;2023-07-31T06:29:30;15.50;;;7.43;;
82296;SDS011;71899;51.992;8.648;2023-07-31T06:31:55;21.63;;;7.40;;
82296;SDS011;71899;51.992;8.648;2023-07-31T06:34:21;15.25;;;7.82;;
82296;SDS011;71899;51.992;8.648;2023-07-31T06:36:46;13.82;;;6.47;;
82296;SDS011;71899;51.992;8.648;2023-07-31T06:39:11;20.25;;;5.95;;
82296;SDS011;71899;51.992;8.648;2023-07-31T06:41:37;15.15;;;7.45;;
82296;SDS011;71899;51.992;8.648;2023-07-31T06:44:08;12.18;;;5.93;;
82296;SDS011;71899;51.992;8.648;2023-07-31T06:46:33;20.50;;;6.78;;
82296;SDS011;71899;51.992;8.648;2023-07-31T06:48:59;24.02;;;7.00;;
82296;SDS011;71899;51.992;8.648;2023-07-31T06:51:24;14.50;;;6.45;;
82296;SDS011;71899;51.992;8.648;2023-07-31T06:53:49;15.13;;;7.18;;
82296;SDS011;71899;51.992;8.648;2023-07-31T06:56:15;15.32;;;6.20;;
82296;SDS011;71899;51.992;8.648;2023-07-31T06:58:40;12.02;;;6.07;;
82296;SDS011;71899;51.992;8.648;2023-07-31T07:01:05;17.75;;;7.72;;
82296;SDS011;71899;51.992;8.648;2023-07-31T07:03:30;22.27;;;7.57;;
82296;SDS011;71899;51.992;8.648;2023-07-31T07:05:56;17.63;;;7.28;;
82296;SDS011;71899;51.992;8.648;2023-07-31T07:08:21;14.75;;;7.60;;
82296;SDS011;71899;51.992;8.648;2023-07-31T07:10:47;11.95;;;5.97;;
82296;SDS011;71899;51.992;8.648;2023-07-31T07:13:12;14.07;;;5.80;;
82296;SDS011;71899;51.992;8.648;2023-07-31T07:15:38;13.00;;;6.60;;
82296;SDS011;71899;51.992;8.648;2023-07-31T07:18:03;15.63;;;5.65;;
82296;SDS011;71899;51.992;8.648;2023-07-31T07:20:29;13.43;;;7.05;;
82296;SDS011;71899;51.992;8.648;2023-07-31T07:22:54;21.67;;;6.75;;
82296;SDS011;71899;51.992;8.648;2023-07-31T07:25:19;18.77;;;6.75;;
82296;SDS011;71899;51.992;8.648;2023-07-31T07:27:44;13.57;;;6.60;;
82296;SDS011;71899;51.992;8.648;2023-07-31T07:30:10;22.10;;;7.15;;
82296;SDS011;71899;51.992;8.648;2023-07-31T07:32:35;22.35;;;7.32;;
82296;SDS011;71899;51.992;8.648;2023-07-31T07:35:00;15.30;;;6.85;;
82296;SDS011;71899;51.992;8.648;2023-07-31T07:37:26;14.52;;;6.85;;
82296;SDS011;71899;51.992;8.648;2023-07-31T07:39:51;13.98;;;6.30;;
82296;SDS011;71899;51.992;8.648;2023-07-31T07:42:16;18.33;;;6.88;;
82296;SDS011;71899;51.992;8.648;2023-07-31T07:44:43;18.08;;;7.50;;
82296;SDS011;71899;51.992;8.648;2023-07-31T07:47:08;13.45;;;6.43;;
82296;SDS011;71899;51.992;8.648;2023-07-31T07:49:34;14.38;;;5.43;;
82296;SDS011;71899;51.992;8.648;2023-07-31T07:52:00;12.68;;;6.40;;
82296;SDS011;71899;51.992;8.648;2023-07-31T07:54:26;8.65;;;4.85;;
82296;SDS011;71899;51.992;8.648;2023-07-31T07:56:51;7.90;;;4.28;;
82296;SDS011;71899;51.992;8.648;2023-07-31T07:59:16;7.32;;;5.03;;
82296;SDS011;71899;51.992;8.648;2023-07-31T08:01:42;9.82;;;5.63;;
82296;SDS011;71899;51.992;8.648;2023-07-31T08:04:07;6.22;;;3.92;;
82296;SDS011;71899;51.992;8.648;2023-07-31T08:06:33;5.03;;;3.42;;
82296;SDS011;71899;51.992;8.648;2023-07-31T08:08:58;6.68;;;3.53;;
82296;SDS011;71899;51.992;8.648;2023-07-31T08:11:24;3.97;;;2.75;;
82296;SDS011;71899;51.992;8.648;2023-07-31T08:13:49;3.33;;;2.58;;
82296;SDS011;71899;51.992;8.648;2023-07-31T08:16:15;4.40;;;3.05;;
82296;SDS011;71899;51.992;8.648;2023-07-31T08:18:40;5.28;;;3.00;;
82296;SDS011;71899;51.992;8.648;2023-07-31T08:21:07;7.93;;;3.00;;
82296;SDS011;71899;51.992;8.648;2023-07-31T08:23:32;4.18;;;2.70;;
82296;SDS011;71899;51.992;8.648;2023-07-31T08:25:58;3.15;;;2.67;;
82296;SDS011;71899;51.992;8.648;2023-07-31T08:28:23;5.68;;;2.90;;
82296;SDS011;71899;51.992;8.648;2023-07-31T08:30:48;4.95;;;3.20;;
82296;SDS011;71899;51.992;8.648;2023-07-31T08:33:15;5.38;;;3.20;;
82296;SDS011;71899;51.992;8.648;2023-07-31T08:35:40;5.40;;;3.47;;
82296;SDS011;71899;51.992;8.648;2023-07-31T08:38:06;7.20;;;4.28;;
82296;SDS011;71899;51.992;8.648;2023-07-31T08:40:31;9.82;;;4.47;;
82296;SDS011;71899;51.992;8.648;2023-07-31T08:42:56;8.43;;;4.00;;
82296;SDS011;71899;51.992;8.648;2023-07-31T08:45:26;10.27;;;4.53;;
82296;SDS011;71899;51.992;8.648;2023-07-31T08:47:52;5.53;;;4.22;;
82296;SDS011;71899;51.992;8.648;2023-07-31T08:50:18;6.30;;;4.38;;
82296;SDS011;71899;51.992;8.648;2023-07-31T08:52:45;5.35;;;4.00;;
82296;SDS011;71899;51.992;8.648;2023-07-31T08:55:12;6.00;;;3.90;;
82296;SDS011;71899;51.992;8.648;2023-07-31T08:57:37;10.23;;;5.20;;
82296;SDS011;71899;51.992;8.648;2023-07-31T09:00:04;5.30;;;3.70;;
82296;SDS011;71899;51.992;8.648;2023-07-31T09:02:52;7.20;;;3.95;;
82296;SDS011;71899;51.992;8.648;2023-07-31T09:05:21;6.57;;;4.65;;
82296;SDS011;71899;51.992;8.648;2023-07-31T09:07:47;8.18;;;3.45;;
82296;SDS011;71899;51.992;8.648;2023-07-31T09:10:14;5.50;;;3.85;;
82296;SDS011;71899;51.992;8.648;2023-07-31T09:12:40;5.28;;;3.45;;
82296;SDS011;71899;51.992;8.648;2023-07-31T09:15:05;5.93;;;3.50;;
82296;SDS011;71899;51.992;8.648;2023-07-31T09:17:34;7.50;;;4.50;;
82296;SDS011;71899;51.992;8.648;2023-07-31T09:22:44;8.05;;;4.70;;
82296;SDS011;71899;51.992;8.648;2023-07-31T09:25:19;6.93;;;5.07;;
82296;SDS011;71899;51.992;8.648;2023-07-31T09:30:11;7.65;;;5.28;;
82296;SDS011;71899;51.992;8.648;2023-07-31T09:32:36;6.75;;;4.30;;
82296;SDS011;71899;51.992;8.648;2023-07-31T09:35:12;7.40;;;4.93;;
82296;SDS011;71899;51.992;8.648;2023-07-31T09:37:49;6.15;;;4.63;;
82296;SDS011;71899;51.992;8.648;2023-07-31T09:40:25;7.85;;;4.07;;
82296;SDS011;71899;51.992;8.648;2023-07-31T09:42:58;8.65;;;4.53;;
82296;SDS011;71899;51.992;8.648;2023-07-31T09:45:24;6.60;;;3.50;;
82296;SDS011;71899;51.992;8.648;2023-07-31T09:47:50;7.55;;;4.28;;
82296;SDS011;71899;51.992;8.648;2023-07-31T09:50:16;5.70;;;3.80;;
82296;SDS011;71899;51.992;8.648;2023-07-31T09:52:41;7.93;;;4.05;;
82296;SDS011;71899;51.992;8.648;2023-07-31T09:55:07;6.10;;;4.03;;
82296;SDS011;71899;51.992;8.648;2023-07-31T09:57:33;7.05;;;4.25;;
82296;SDS011;71899;51.992;8.648;2023-07-31T10:00:03;7.05;;;3.42;;
82296;SDS011;71899;51.992;8.648;2023-07-31T10:02:37;5.13;;;3.38;;
82296;SDS011;71899;51.992;8.648;2023-07-31T10:05:03;7.30;;;3.72;;
82296;SDS011;71899;51.992;8.648;2023-07-31T10:07:30;4.68;;;3.60;;
82296;SDS011;71899;51.992;8.648;2023-07-31T10:09:59;6.75;;;3.70;;
82296;SDS011;71899;51.992;8.648;2023-07-31T10:12:27;7.28;;;3.97;;
82296;SDS011;71899;51.992;8.648;2023-07-31T10:14:56;6.05;;;3.78;;
82296;SDS011;71899;51.992;8.648;2023-07-31T10:17:22;4.40;;;3.05;;
82296;SDS011;71899;51.992;8.648;2023-07-31T10:19:48;5.65;;;3.53;;
82296;SDS011;71899;51.992;8.648;2023-07-31T10:22:14;4.75;;;3.67;;
82296;SDS011;71899;51.992;8.648;2023-07-31T10:24:44;5.78;;;3.53;;
82296;SDS011;71899;51.992;8.648;2023-07-31T10:27:10;5.28;;;3.40;;
82296;SDS011;71899;51.992;8.648;2023-07-31T10:29:36;5.72;;;2.72;;
82296;SDS011;71899;51.992;8.648;2023-07-31T10:32:03;6.07;;;3.28;;
82296;SDS011;71899;51.992;8.648;2023-07-31T10:34:33;3.70;;;2.42;;
82296;SDS011;71899;51.992;8.648;2023-07-31T10:42:35;3.97;;;2.35;;
82296;SDS011;71899;51.992;8.648;2023-07-31T10:45:03;2.72;;;2.35;;
82296;SDS011;71899;51.992;8.648;2023-07-31T10:47:44;4.88;;;2.28;;
82296;SDS011;71899;51.992;8.648;2023-07-31T10:50:11;2.97;;;1.80;;
82296;SDS011;71899;51.992;8.648;2023-07-31T10:52:49;3.17;;;1.33;;
82296;SDS011;71899;51.992;8.648;2023-07-31T10:55:32;2.42;;;1.60;;
82296;SDS011;71899;51.992;8.648;2023-07-31T10:58:13;3.13;;;1.90;;
82296;SDS011;71899;51.992;8.648;2023-07-31T11:00:43;3.20;;;2.17;;
82296;SDS011;71899;51.992;8.648;2023-07-31T11:03:13;2.40;;;1.83;;
82296;SDS011;71899;51.992;8.648;2023-07-31T11:06:01;6.55;;;2.47;;
82296;SDS011;71899;51.992;8.648;2023-07-31T11:08:31;3.08;;;1.92;;
82296;SDS011;71899;51.992;8.648;2023-07-31T11:13:28;4.00;;;2.20;;
82296;SDS011;71899;51.992;8.648;2023-07-31T11:15:54;5.10;;;2.20;;
82296;SDS011;71899;51.992;8.648;2023-07-31T11:18:19;2.60;;;2.00;;
82296;SDS011;71899;51.992;8.648;2023-07-31T11:20:44;4.55;;;2.30;;
82296;SDS011;71899;51.992;8.648;2023-07-31T11:23:10;4.03;;;2.30;;
82296;SDS011;71899;51.992;8.648;2023-07-31T11:25:36;3.45;;;1.80;;
82296;SDS011;71899;51.992;8.648;2023-07-31T11:28:06;2.97;;;1.60;;
82296;SDS011;71899;51.992;8.648;2023-07-31T11:30:34;3.08;;;1.85;;
82296;SDS011;71899;51.992;8.648;2023-07-31T11:33:04;1.65;;;1.30;;
82296;SDS011;71899;51.992;8.648;2023-07-31T11:35:31;4.20;;;1.90;;
82296;SDS011;71899;51.992;8.648;2023-07-31T11:37:57;2.15;;;1.55;;
82296;SDS011;71899;51.992;8.648;2023-07-31T11:40:23;2.50;;;1.67;;
82296;SDS011;71899;51.992;8.648;2023-07-31T11:42:53;3.03;;;1.92;;
82296;SDS011;71899;51.992;8.648;2023-07-31T11:45:19;3.33;;;1.83;;
82296;SDS011;71899;51.992;8.648;2023-07-31T11:47:44;4.40;;;2.40;;
82296;SDS011;71899;51.992;8.648;2023-07-31T11:50:10;3.28;;;2.28;;
82296;SDS011;71899;51.992;8.648;2023-07-31T11:52:39;3.33;;;2.10;;
82296;SDS011;71899;51.992;8.648;2023-07-31T11:55:07;3.58;;;2.17;;
82296;SDS011;71899;51.992;8.648;2023-07-31T11:57:34;4.32;;;2.47;;
82296;SDS011;71899;51.992;8.648;2023-07-31T12:00:01;3.95;;;2.45;;
82296;SDS011;71899;51.992;8.648;2023-07-31T12:02:29;3.20;;;2.17;;
82296;SDS011;71899;51.992;8.648;2023-07-31T12:04:55;3.97;;;1.58;;
82296;SDS011;71899;51.992;8.648;2023-07-31T12:07:20;3.13;;;1.83;;
82296;SDS011;71899;51.992;8.648;2023-07-31T12:09:54;2.88;;;1.70;;
82296;SDS011;71899;51.992;8.648;2023-07-31T12:12:20;9.05;;;2.50;;
82296;SDS011;71899;51.992;8.648;2023-07-31T12:14:47;2.97;;;1.63;;
82296;SDS011;71899;51.992;8.648;2023-07-31T12:17:12;3.13;;;1.52;;
82296;SDS011;71899;51.992;8.648;2023-07-31T12:19:39;2.58;;;1.80;;
82296;SDS011;71899;51.992;8.648;2023-07-31T12:22:11;4.00;;;1.60;;
82296;SDS011;71899;51.992;8.648;2023-07-31T12:24:38;2.85;;;1.55;;
82296;SDS011;71899;51.992;8.648;2023-07-31T12:27:08;3.53;;;1.65;;
82296;SDS011;71899;51.992;8.648;2023-07-31T12:29:41;3.33;;;1.58;;
82296;SDS011;71899;51.992;8.648;2023-07-31T12:32:20;3.10;;;1.50;;
82296;SDS011;71899;51.992;8.648;2023-07-31T12:34:50;2.20;;;1.60;;
82296;SDS011;71899;51.992;8.648;2023-07-31T12:37:15;2.88;;;1.73;;
82296;SDS011;71899;51.992;8.648;2023-07-31T12:39:41;4.60;;;1.92;;
82296;SDS011;71899;51.992;8.648;2023-07-31T12:42:06;4.57;;;1.75;;
82296;SDS011;71899;51.992;8.648;2023-07-31T12:44:31;3.13;;;2.00;;
82296;SDS011;71899;51.992;8.648;2023-07-31T12:46:57;2.38;;;1.70;;
82296;SDS011;71899;51.992;8.648;2023-07-31T12:49:22;1.70;;;1.40;;
82296;SDS011;71899;51.992;8.648;2023-07-31T12:51:47;3.08;;;1.67;;
82296;SDS011;71899;51.992;8.648;2023-07-31T12:54:12;3.65;;;2.00;;
82296;SDS011;71899;51.992;8.648;2023-07-31T12:56:38;3.40;;;1.65;;
82296;SDS011;71899;51.992;8.648;2023-07-31T12:59:03;2.47;;;2.03;;
82296;SDS011;71899;51.992;8.648;2023-07-31T13:01:28;3.03;;;2.72;;
82296;SDS011;71899;51.992;8.648;2023-07-31T13:03:54;2.80;;;2.30;;
82296;SDS011;71899;51.992;8.648;2023-07-31T13:06:19;2.53;;;2.00;;
82296;SDS011;71899;51.992;8.648;2023-07-31T13:08:44;3.53;;;2.53;;
82296;SDS011;71899;51.992;8.648;2023-07-31T13:11:09;3.80;;;3.05;;
82296;SDS011;71899;51.992;8.648;2023-07-31T13:13:35;7.20;;;3.65;;
82296;SDS011;71899;51.992;8.648;2023-07-31T13:16:00;5.47;;;4.05;;
82296;SDS011;71899;51.992;8.648;2023-07-31T13:18:25;5.88;;;3.92;;
82296;SDS011;71899;51.992;8.648;2023-07-31T13:20:51;4.35;;;3.08;;
82296;SDS011;71899;51.992;8.648;2023-07-31T13:23:16;4.70;;;4.13;;
82296;SDS011;71899;51.992;8.648;2023-07-31T13:25:41;3.58;;;2.97;;
82296;SDS011;71899;51.992;8.648;2023-07-31T13:28:07;4.13;;;3.42;;
82296;SDS011;71899;51.992;8.648;2023-07-31T13:30:32;4.43;;;3.28;;
82296;SDS011;71899;51.992;8.648;2023-07-31T13:32:58;4.95;;;3.17;;
82296;SDS011;71899;51.992;8.648;2023-07-31T13:35:23;4.13;;;3.17;;
82296;SDS011;71899;51.992;8.648;2023-07-31T13:37:48;3.42;;;2.70;;
82296;SDS011;71899;51.992;8.648;2023-07-31T13:40:13;3.30;;;2.65;;
82296;SDS011;71899;51.992;8.648;2023-07-31T13:42:39;5.65;;;3.20;;
82296;SDS011;71899;51.992;8.648;2023-07-31T13:45:04;5.25;;;2.78;;
82296;SDS011;71899;51.992;8.648;2023-07-31T13:47:30;5.90;;;2.80;;
82296;SDS011;71899;51.992;8.648;2023-07-31T13:49:56;2.80;;;2.42;;
82296;SDS011;71899;51.992;8.648;2023-07-31T13:52:21;4.70;;;3.00;;
82296;SDS011;71899;51.992;8.648;2023-07-31T13:54:46;4.30;;;2.55;;
82296;SDS011;71899;51.992;8.648;2023-07-31T13:57:12;6.75;;;2.35;;
82296;SDS011;71899;51.992;8.648;2023-07-31T13:59:37;3.10;;;2.40;;
82296;SDS011;71899;51.992;8.648;2023-07-31T14:02:02;3.72;;;2.47;;
82296;SDS011;71899;51.992;8.648;2023-07-31T14:04:28;8.07;;;3.05;;
82296;SDS011;71899;51.992;8.648;2023-07-31T14:06:53;3.28;;;2.33;;
82296;SDS011;71899;51.992;8.648;2023-07-31T14:09:21;6.93;;;2.50;;
82296;SDS011;71899;51.992;8.648;2023-07-31T14:11:46;3.90;;;2.45;;
82296;SDS011;71899;51.992;8.648;2023-07-31T14:14:11;3.00;;;2.20;;
82296;SDS011;71899;51.992;8.648;2023-07-31T14:16:37;3.85;;;2.75;;
82296;SDS011;71899;51.992;8.648;2023-07-31T14:19:03;4.72;;;2.47;;
82296;SDS011;71899;51.992;8.648;2023-07-31T14:21:28;2.92;;;2.30;;
82296;SDS011;71899;51.992;8.648;2023-07-31T14:23:53;5.72;;;3.83;;
82296;SDS011;71899;51.992;8.648;2023-07-31T14:26:18;6.10;;;2.28;;
82296;SDS011;71899;51.992;8.648;2023-07-31T14:28:44;4.80;;;2.83;;
82296;SDS011;71899;51.992;8.648;2023-07-31T14:31:09;3.08;;;2.63;;
82296;SDS011;71899;51.992;8.648;2023-07-31T14:33:34;5.22;;;2.80;;
82296;SDS011;71899;51.992;8.648;2023-07-31T14:36:00;4.63;;;2.33;;
82296;SDS011;71899;51.992;8.648;2023-07-31T14:38:26;7.75;;;3.20;;
82296;SDS011;71899;51.992;8.648;2023-07-31T14:40:51;4.63;;;2.72;;
82296;SDS011;71899;51.992;8.648;2023-07-31T14:43:16;3.95;;;2.33;;
82296;SDS011;71899;51.992;8.648;2023-07-31T14:45:42;5.03;;;2.40;;
82296;SDS011;71899;51.992;8.648;2023-07-31T14:48:07;9.18;;;2.42;;
82296;SDS011;71899;51.992;8.648;2023-07-31T14:50:32;2.90;;;2.20;;
82296;SDS011;71899;51.992;8.648;2023-07-31T14:52:58;4.65;;;2.72;;
82296;SDS011;71899;51.992;8.648;2023-07-31T14:55:23;4.72;;;2.00;;